Dakar, Dakar International Airport (GOOY)

NameDakar International Airport
CityDakar
CountrySenegal
ICAOGOOY
IATADKR
Altitude85 feet
CoordinatesGoogle Map
Live Air TrafficLiveATC.net
METARGOOY 230800Z 22008KT 190V260 9999 SCT013 28/24 Q1013
2024-07-23 08:00:00 Wind: South-Southwest (220°) 4.12 m/s - Visibility: > 10000 m - Temperature: 28 °C - Dew point: 24 °C - Humidity: 78.9% - Pressure: 1013 hPa

Sorry, no flights used the airport in this database.